createdAt,value
2023-03-15T00:00:12.953Z,-0.28
2023-03-15T00:02:42.785Z,-0.29
2023-03-15T00:05:13.902Z,-0.32
2023-03-15T00:07:42.418Z,-0.32
2023-03-15T00:10:12.189Z,-0.34
2023-03-15T00:12:42.615Z,-0.26
2023-03-15T00:15:15.194Z,-0.26
2023-03-15T00:17:45.143Z,-0.21
2023-03-15T00:20:15.739Z,-0.13
2023-03-15T00:22:44.242Z,-0.04
2023-03-15T00:25:12.648Z,0.05
2023-03-15T00:27:41.211Z,0.04
2023-03-15T00:30:11.455Z,0.13
2023-03-15T00:32:39.974Z,0.16
2023-03-15T00:35:12.792Z,0.22
2023-03-15T00:37:41.450Z,0.25
2023-03-15T00:40:12.235Z,0.32
2023-03-15T00:42:40.980Z,0.34
2023-03-15T00:45:10.534Z,0.33
2023-03-15T00:47:39.004Z,0.39
2023-03-15T00:50:09.329Z,0.46
2023-03-15T00:52:38.805Z,0.43
2023-03-15T00:55:13.217Z,0.46
2023-03-15T00:57:42.540Z,0.46
2023-03-15T01:00:14.236Z,0.47
2023-03-15T01:02:43.080Z,0.44
2023-03-15T01:05:13.353Z,0.48
2023-03-15T01:07:41.946Z,0.59
2023-03-15T01:10:12.826Z,0.56
2023-03-15T01:12:41.485Z,0.51
2023-03-15T01:15:13.658Z,0.53
2023-03-15T01:17:42.981Z,0.55
2023-03-15T01:20:15.861Z,0.58
2023-03-15T01:22:44.577Z,0.64
2023-03-15T01:25:13.025Z,0.62
2023-03-15T01:27:41.541Z,0.62
2023-03-15T01:30:11.346Z,0.61
2023-03-15T01:32:39.901Z,0.56
2023-03-15T01:35:09.338Z,0.49
2023-03-15T01:37:39.235Z,0.54
2023-03-15T01:40:14.511Z,0.59
2023-03-15T01:43:15.025Z,0.61
2023-03-15T01:46:05.639Z,0.50
2023-03-15T01:48:44.482Z,0.44
2023-03-15T01:51:20.114Z,0.17
2023-03-15T01:53:54.936Z,-0.05
2023-03-15T01:56:25.002Z,-0.08
2023-03-15T01:58:54.872Z,-0.19
2023-03-15T02:01:23.625Z,-0.30
2023-03-15T02:03:58.505Z,-0.25
2023-03-15T02:06:34.842Z,-0.35
2023-03-15T02:09:11.141Z,-0.35
2023-03-15T02:11:41.620Z,-0.34
2023-03-15T02:14:13.032Z,-0.28
2023-03-15T02:16:44.238Z,-0.20
2023-03-15T02:19:28.673Z,-0.29
2023-03-15T02:22:08.004Z,-0.15
2023-03-15T02:24:47.098Z,-0.23
2023-03-15T02:27:15.867Z,-0.25
2023-03-15T02:29:45.739Z,-0.25
2023-03-15T02:32:14.290Z,-0.17
2023-03-15T02:34:42.707Z,-0.06
2023-03-15T02:37:11.133Z,-0.03
2023-03-15T02:39:39.751Z,0.01
2023-03-15T02:42:08.824Z,0.05
2023-03-15T02:44:39.147Z,0.01
2023-03-15T02:47:13.228Z,-0.06
2023-03-15T02:49:45.122Z,-0.12
2023-03-15T02:52:13.869Z,-0.11
2023-03-15T02:54:43.331Z,-0.11
2023-03-15T02:57:12.088Z,0.02
2023-03-15T02:59:42.095Z,0.06
2023-03-15T03:02:13.040Z,0.14
2023-03-15T03:04:43.706Z,0.08
2023-03-15T03:07:12.223Z,-0.01
2023-03-15T03:09:50.601Z,-0.03
2023-03-15T03:12:22.076Z,-0.15
2023-03-15T03:14:50.658Z,-0.09
2023-03-15T03:17:24.370Z,-0.18
2023-03-15T03:19:52.908Z,-0.19
2023-03-15T03:22:27.511Z,-0.27
2023-03-15T03:24:56.612Z,-0.22
2023-03-15T03:27:25.062Z,-0.23
2023-03-15T03:29:53.554Z,-0.19
2023-03-15T03:32:24.128Z,-0.14
2023-03-15T03:34:54.203Z,-0.19
2023-03-15T03:37:24.767Z,-0.29
2023-03-15T03:39:58.855Z,-0.18
2023-03-15T03:42:27.542Z,-0.19
2023-03-15T03:44:55.944Z,-0.17
2023-03-15T03:47:28.595Z,-0.13
2023-03-15T03:49:57.050Z,-0.12
2023-03-15T03:52:25.496Z,-0.24
2023-03-15T03:54:56.705Z,-0.18
2023-03-15T03:57:25.121Z,-0.17
2023-03-15T03:59:53.703Z,-0.20
2023-03-15T04:02:22.416Z,-0.14
2023-03-15T04:05:01.176Z,-0.17
2023-03-15T04:07:29.635Z,-0.18
2023-03-15T04:09:58.050Z,-0.21
2023-03-15T04:12:26.443Z,-0.16
2023-03-15T04:14:56.986Z,-0.05
2023-03-15T04:17:28.473Z,-0.11
2023-03-15T04:19:56.889Z,-0.11
2023-03-15T04:22:30.859Z,0.01
2023-03-15T04:25:19.019Z,-0.16
2023-03-15T04:27:59.555Z,-0.15
2023-03-15T04:31:00.449Z,-0.02
2023-03-15T04:33:49.605Z,-0.06
2023-03-15T04:36:45.236Z,-0.08
2023-03-15T04:39:35.552Z,-0.12
2023-03-15T04:42:26.027Z,-0.16
2023-03-15T04:45:17.768Z,-0.07
2023-03-15T04:48:06.487Z,-0.02
2023-03-15T04:50:53.969Z,-0.03
2023-03-15T04:53:40.996Z,0.02
2023-03-15T04:56:42.105Z,0.15
2023-03-15T04:59:19.610Z,0.19
2023-03-15T05:01:48.103Z,0.20
2023-03-15T05:04:37.080Z,0.21
2023-03-15T05:07:23.991Z,0.09
2023-03-15T05:10:19.395Z,0.31
2023-03-15T05:12:59.753Z,0.24
2023-03-15T05:15:48.431Z,0.09
2023-03-15T05:18:40.053Z,0.04
2023-03-15T05:21:35.572Z,0.04
2023-03-15T05:24:29.073Z,-0.09
2023-03-15T05:27:21.019Z,-0.06
2023-03-15T05:30:09.769Z,-0.12
2023-03-15T05:32:45.694Z,-0.21
2023-03-15T05:35:41.546Z,-0.23
2023-03-15T05:38:31.154Z,-0.16
2023-03-15T05:41:19.119Z,-0.29
2023-03-15T05:43:56.490Z,-0.49
2023-03-15T05:47:01.876Z,-0.26
2023-03-15T05:49:41.759Z,-0.29
2023-03-15T05:52:24.235Z,-0.17
2023-03-15T05:55:00.299Z,-0.19
2023-03-15T05:57:49.284Z,-0.07
2023-03-15T06:00:43.077Z,-0.09
2023-03-15T06:03:24.305Z,-0.14
2023-03-15T06:05:58.621Z,-0.06
2023-03-15T06:08:35.932Z,-0.02
2023-03-15T06:11:04.349Z,0.01
2023-03-15T06:13:33.763Z,-0.03
2023-03-15T06:16:07.082Z,0.11
2023-03-15T06:18:39.055Z,0.21
2023-03-15T06:21:07.841Z,0.20
2023-03-15T06:23:37.741Z,0.21
2023-03-15T06:26:06.505Z,0.35
2023-03-15T06:28:35.573Z,0.32
2023-03-15T06:31:08.908Z,0.34
2023-03-15T06:33:45.054Z,0.51
2023-03-15T06:36:14.182Z,0.61
2023-03-15T06:38:43.525Z,0.59
2023-03-15T06:41:15.499Z,0.63
2023-03-15T06:43:44.448Z,0.66
2023-03-15T06:46:14.229Z,0.69
2023-03-15T06:48:42.958Z,0.65
2023-03-15T06:51:14.477Z,0.57
2023-03-15T06:53:43.124Z,0.59
2023-03-15T06:56:11.936Z,0.97
2023-03-15T06:58:40.407Z,0.97
2023-03-15T07:01:09.054Z,1.71
2023-03-15T07:03:37.948Z,1.80
2023-03-15T07:06:06.598Z,1.87
2023-03-15T07:08:36.327Z,1.42
2023-03-15T07:11:06.306Z,1.29
2023-03-15T07:13:34.697Z,1.09
2023-03-15T07:16:03.068Z,0.88
2023-03-15T07:18:33.394Z,0.88
2023-03-15T07:21:03.192Z,1.14
2023-03-15T07:23:32.217Z,1.39
2023-03-15T07:26:01.911Z,1.78
2023-03-15T07:28:30.586Z,2.75
2023-03-15T07:31:00.718Z,3.36
2023-03-15T07:33:31.218Z,3.57
2023-03-15T07:35:59.625Z,3.72
2023-03-15T07:38:29.718Z,4.89
2023-03-15T07:40:58.924Z,5.60
2023-03-15T07:43:29.241Z,5.46
2023-03-15T07:46:08.999Z,5.94
2023-03-15T07:48:37.377Z,5.98
2023-03-15T07:51:06.201Z,6.69
2023-03-15T07:53:34.542Z,6.61
2023-03-15T07:56:02.817Z,7.31
2023-03-15T07:58:33.670Z,7.81
2023-03-15T08:01:02.003Z,8.38
2023-03-15T08:03:30.382Z,8.30
2023-03-15T08:05:59.043Z,9.02
2023-03-15T08:08:27.369Z,9.17
2023-03-15T08:10:56.853Z,8.84
2023-03-15T08:13:25.274Z,8.66
2023-03-15T08:15:55.009Z,7.92
2023-03-15T08:18:23.381Z,7.24
2023-03-15T08:20:52.135Z,7.76
2023-03-15T08:23:21.765Z,8.72
2023-03-15T08:25:50.368Z,7.89
2023-03-15T08:28:18.733Z,7.55
2023-03-15T08:30:47.099Z,7.64
2023-03-15T08:33:17.435Z,7.62
2023-03-15T08:35:45.868Z,7.48
2023-03-15T08:38:14.424Z,7.03
2023-03-15T08:40:42.746Z,6.16
2023-03-15T08:43:11.093Z,6.00
2023-03-15T08:45:56.796Z,5.37
2023-03-15T08:48:29.765Z,5.06
2023-03-15T08:51:02.317Z,5.71
2023-03-15T08:53:31.072Z,5.96
2023-03-15T08:55:59.789Z,7.31
2023-03-15T08:58:28.600Z,9.04
2023-03-15T09:00:57.341Z,9.93
2023-03-15T09:03:25.741Z,11.05
2023-03-15T09:05:58.315Z,11.56
2023-03-15T09:08:27.252Z,11.93
2023-03-15T09:10:56.678Z,12.32
2023-03-15T09:13:26.193Z,12.39
2023-03-15T09:15:55.240Z,13.34
2023-03-15T09:18:24.699Z,12.90
2023-03-15T09:20:53.054Z,12.24
2023-03-15T09:23:22.773Z,10.99
2023-03-15T09:25:51.091Z,9.81
2023-03-15T09:28:19.457Z,9.32
2023-03-15T09:30:47.812Z,8.06
2023-03-15T09:33:16.339Z,7.85
2023-03-15T09:35:44.755Z,7.38
2023-03-15T09:38:13.234Z,7.15
2023-03-15T09:40:46.135Z,7.12
2023-03-15T09:43:43.192Z,8.28
2023-03-15T09:46:25.922Z,8.87
2023-03-15T09:49:00.085Z,8.10
2023-03-15T09:51:39.140Z,7.71
2023-03-15T09:54:13.754Z,8.28
2023-03-15T09:56:51.489Z,8.85
2023-03-15T09:59:22.787Z,8.80
2023-03-15T10:01:57.357Z,11.10
2023-03-15T10:04:29.728Z,11.45
2023-03-15T10:06:59.965Z,12.32
2023-03-15T10:09:33.268Z,10.18
2023-03-15T10:12:06.462Z,9.26
2023-03-15T10:15:02.632Z,11.37
2023-03-15T10:17:39.657Z,12.76
2023-03-15T10:20:13.188Z,13.97
2023-03-15T10:22:48.322Z,13.88
2023-03-15T10:25:20.717Z,13.94
2023-03-15T10:27:53.463Z,13.94
2023-03-15T10:30:24.484Z,15.09
2023-03-15T10:32:57.559Z,15.05
2023-03-15T10:35:26.788Z,15.05
2023-03-15T10:37:55.506Z,13.93
2023-03-15T10:40:41.791Z,14.81
2023-03-15T10:43:22.879Z,14.06
2023-03-15T10:46:00.695Z,14.69
2023-03-15T10:48:31.540Z,15.14
2023-03-15T10:51:06.621Z,15.92
2023-03-15T10:53:34.996Z,16.95
2023-03-15T10:56:06.623Z,17.06
2023-03-15T10:58:50.881Z,16.55
2023-03-15T11:01:26.950Z,15.47
2023-03-15T11:04:08.314Z,15.83
2023-03-15T11:06:42.835Z,16.12
2023-03-15T11:09:13.080Z,16.02
2023-03-15T11:11:54.332Z,15.09
2023-03-15T11:14:24.207Z,14.98
2023-03-15T11:16:55.199Z,16.56
2023-03-15T11:19:27.062Z,15.22
2023-03-15T11:21:57.087Z,14.99
2023-03-15T11:24:27.576Z,16.02
2023-03-15T11:27:01.446Z,17.28
2023-03-15T11:29:33.533Z,17.13
2023-03-15T11:32:05.878Z,18.43
2023-03-15T11:34:41.894Z,17.32
2023-03-15T11:37:16.288Z,15.46
2023-03-15T11:39:53.737Z,13.32
2023-03-15T11:42:29.179Z,11.25
2023-03-15T11:45:02.809Z,12.29
2023-03-15T11:47:39.299Z,12.67
2023-03-15T11:50:08.579Z,12.24
2023-03-15T11:52:37.016Z,10.77
2023-03-15T11:55:06.023Z,10.52
2023-03-15T11:57:46.528Z,11.81
2023-03-15T12:00:53.633Z,14.22
2023-03-15T12:03:34.388Z,16.34
2023-03-15T12:06:08.015Z,16.05
2023-03-15T12:08:50.369Z,17.42
2023-03-15T12:11:39.737Z,16.57
2023-03-15T12:14:28.084Z,17.57
2023-03-15T12:17:37.698Z,16.04
2023-03-15T12:20:18.735Z,13.72
2023-03-15T12:22:51.986Z,11.41
2023-03-15T12:25:26.178Z,10.64
2023-03-15T12:27:57.800Z,10.28
2023-03-15T12:30:33.268Z,10.76
2023-03-15T12:33:03.548Z,11.48
2023-03-15T12:35:40.550Z,10.39
2023-03-15T12:38:15.850Z,9.39
2023-03-15T12:40:54.825Z,9.52
2023-03-15T12:43:41.084Z,10.08
2023-03-15T12:46:54.696Z,11.17
2023-03-15T12:49:32.198Z,13.50
2023-03-15T12:52:05.078Z,14.91
2023-03-15T12:54:43.146Z,15.53
2023-03-15T12:57:12.979Z,14.76
2023-03-15T12:59:48.212Z,13.09
2023-03-15T13:02:35.921Z,11.49
2023-03-15T13:05:19.352Z,10.28
2023-03-15T13:07:56.672Z,10.16
2023-03-15T13:10:33.425Z,10.00
2023-03-15T13:13:11.558Z,9.89
2023-03-15T13:15:45.813Z,9.57
2023-03-15T13:18:19.270Z,9.52
2023-03-15T13:21:01.472Z,8.94
2023-03-15T13:23:35.368Z,9.66
2023-03-15T13:26:28.930Z,9.33
2023-03-15T13:29:01.738Z,8.87
2023-03-15T13:31:31.816Z,9.01
2023-03-15T13:34:14.390Z,9.25
2023-03-15T13:36:46.392Z,9.37
2023-03-15T13:39:25.724Z,8.83
2023-03-15T13:41:58.925Z,8.96
2023-03-15T13:44:28.287Z,9.03
2023-03-15T13:46:57.969Z,9.12
2023-03-15T13:49:32.807Z,8.93
2023-03-15T13:52:03.820Z,9.07
2023-03-15T13:54:35.160Z,9.01
2023-03-15T13:57:07.254Z,9.10
2023-03-15T13:59:42.868Z,9.35
2023-03-15T14:02:14.160Z,9.14
2023-03-15T14:04:43.174Z,8.98
2023-03-15T14:07:26.421Z,8.80
2023-03-15T14:10:24.328Z,9.08
2023-03-15T14:12:53.981Z,9.17
2023-03-15T14:15:26.375Z,8.84
2023-03-15T14:18:00.052Z,8.66
2023-03-15T14:20:33.581Z,8.44
2023-03-15T14:23:03.573Z,8.18
2023-03-15T14:25:37.414Z,8.17
2023-03-15T14:28:06.960Z,8.34
2023-03-15T14:30:38.312Z,8.41
2023-03-15T14:33:08.963Z,8.91
2023-03-15T14:35:46.062Z,9.12
2023-03-15T14:38:22.750Z,8.89
2023-03-15T14:40:54.569Z,8.96
2023-03-15T14:43:23.537Z,8.91
2023-03-15T14:45:52.330Z,9.20
2023-03-15T14:48:27.989Z,9.40
2023-03-15T14:50:57.238Z,9.31
2023-03-15T14:53:27.844Z,9.74
2023-03-15T14:55:57.659Z,9.77
2023-03-15T14:58:26.176Z,10.14
2023-03-15T15:00:57.946Z,10.14
2023-03-15T15:03:33.458Z,9.72
2023-03-15T15:06:03.542Z,9.64
2023-03-15T15:08:33.538Z,9.59
2023-03-15T15:11:03.414Z,9.23
2023-03-15T15:13:32.657Z,9.14
2023-03-15T15:16:01.876Z,8.80
2023-03-15T15:23:01.840Z,8.42
2023-03-15T15:25:31.347Z,8.02
2023-03-15T15:28:01.251Z,8.07
2023-03-15T15:30:31.357Z,8.01
2023-03-15T15:32:59.956Z,7.94
2023-03-15T15:35:29.212Z,7.70
2023-03-15T15:37:58.133Z,7.80
2023-03-15T15:40:29.051Z,7.80
2023-03-15T15:42:59.091Z,7.83
2023-03-15T15:45:29.199Z,7.80
2023-03-15T15:47:57.792Z,7.67
2023-03-15T15:50:26.260Z,7.72
2023-03-15T15:52:55.036Z,7.71
2023-03-15T15:55:24.844Z,7.66
2023-03-15T15:57:55.723Z,7.59
2023-03-15T16:00:26.185Z,7.51
2023-03-15T16:02:57.836Z,7.40
2023-03-15T16:05:28.427Z,7.34
2023-03-15T16:07:57.776Z,7.31
2023-03-15T16:10:30.393Z,6.92
2023-03-15T16:12:59.397Z,6.91
2023-03-15T16:15:27.954Z,6.93
2023-03-15T16:17:57.979Z,7.03
2023-03-15T16:20:27.287Z,7.00
2023-03-15T16:23:00.240Z,6.95
2023-03-15T16:25:33.729Z,6.79
2023-03-15T16:28:03.741Z,6.75
2023-03-15T16:30:33.455Z,6.70
2023-03-15T16:33:03.680Z,6.60
2023-03-15T16:35:35.126Z,6.49
2023-03-15T16:38:07.013Z,6.40
2023-03-15T16:40:40.461Z,6.33
2023-03-15T16:43:11.777Z,6.26
2023-03-15T16:45:40.557Z,6.12
2023-03-15T16:48:11.899Z,6.08
2023-03-15T16:50:42.533Z,6.02
2023-03-15T16:53:13.435Z,5.94
2023-03-15T16:55:42.235Z,5.70
2023-03-15T16:58:20.586Z,5.63
2023-03-15T17:00:49.422Z,5.45
2023-03-15T17:03:21.249Z,5.33
2023-03-15T17:05:49.965Z,5.37
2023-03-15T17:08:20.964Z,5.21
2023-03-15T17:10:49.943Z,5.10
2023-03-15T17:13:24.433Z,5.16
2023-03-15T17:15:52.868Z,5.01
2023-03-15T17:18:23.905Z,4.95
2023-03-15T17:20:52.284Z,4.83
2023-03-15T17:23:21.362Z,4.81
2023-03-15T17:25:50.139Z,4.75
2023-03-15T17:28:18.702Z,4.66
2023-03-15T17:30:48.471Z,4.63
2023-03-15T17:33:18.169Z,4.54
2023-03-15T17:35:53.879Z,4.42
2023-03-15T17:38:22.579Z,4.35
2023-03-15T17:40:51.315Z,4.28
2023-03-15T17:43:20.407Z,4.33
2023-03-15T17:45:48.861Z,4.28
2023-03-15T17:48:17.186Z,4.29
2023-03-15T17:50:45.776Z,4.31
2023-03-15T17:53:17.862Z,4.20
2023-03-15T17:55:47.828Z,4.04
2023-03-15T17:58:19.663Z,3.95
2023-03-15T18:00:49.092Z,3.80
2023-03-15T18:03:18.407Z,3.88
2023-03-15T18:05:47.288Z,3.98
2023-03-15T18:08:19.099Z,3.85
2023-03-15T18:10:49.090Z,3.91
2023-03-15T18:13:19.332Z,3.82
2023-03-15T18:15:49.091Z,3.79
2023-03-15T18:18:18.034Z,3.70
2023-03-15T18:20:47.125Z,3.64
2023-03-15T18:23:18.181Z,3.57
2023-03-15T18:25:46.724Z,3.50
2023-03-15T18:28:15.356Z,3.54
2023-03-15T18:30:44.681Z,3.48
2023-03-15T18:33:14.098Z,3.44
2023-03-15T18:35:42.685Z,3.41
2023-03-15T18:38:11.255Z,3.46
2023-03-15T18:40:40.975Z,3.41
2023-03-15T18:43:13.148Z,3.40
2023-03-15T18:45:41.790Z,3.47
2023-03-15T18:48:10.134Z,3.51
2023-03-15T18:50:38.631Z,3.42
2023-03-15T18:53:06.965Z,3.39
2023-03-15T18:55:35.543Z,3.40
2023-03-15T18:58:08.796Z,3.37
2023-03-15T19:00:37.676Z,3.32
2023-03-15T19:03:06.908Z,3.25
2023-03-15T19:05:38.121Z,3.24
2023-03-15T19:08:06.551Z,3.21
2023-03-15T19:10:34.971Z,3.21
2023-03-15T19:13:05.005Z,3.19
2023-03-15T19:15:33.347Z,3.17
2023-03-15T19:18:01.933Z,3.07
2023-03-15T19:20:30.293Z,3.02
2023-03-15T19:22:59.835Z,3.05
2023-03-15T19:25:28.261Z,3.12
2023-03-15T19:27:57.400Z,3.17
2023-03-15T19:30:27.482Z,3.18
2023-03-15T19:32:56.260Z,3.18
2023-03-15T19:35:25.748Z,3.21
2023-03-15T19:37:56.129Z,3.28
2023-03-15T19:40:25.529Z,3.28
2023-03-15T19:42:54.093Z,3.14
2023-03-15T19:45:22.629Z,3.04
2023-03-15T19:47:52.377Z,3.13
2023-03-15T19:50:20.870Z,3.13
2023-03-15T19:52:49.886Z,3.17
2023-03-15T19:55:20.148Z,3.04
2023-03-15T19:57:49.118Z,3.02
2023-03-15T20:00:22.891Z,2.95
2023-03-15T20:02:53.216Z,2.87
2023-03-15T20:05:22.393Z,2.95
2023-03-15T20:07:51.676Z,2.85
2023-03-15T20:10:21.418Z,2.96
2023-03-15T20:12:50.294Z,2.85
2023-03-15T20:15:20.883Z,2.91
2023-03-15T20:17:49.276Z,3.05
2023-03-15T20:20:20.705Z,3.05
2023-03-15T20:22:49.287Z,3.14
2023-03-15T20:25:19.957Z,3.01
2023-03-15T20:27:49.351Z,2.96
2023-03-15T20:30:18.573Z,2.96
2023-03-15T20:32:47.224Z,2.99
2023-03-15T20:35:15.897Z,2.93
2023-03-15T20:37:45.669Z,2.89
2023-03-15T20:40:16.356Z,3.00
2023-03-15T20:42:44.760Z,2.98
2023-03-15T20:45:14.081Z,2.91
2023-03-15T20:47:43.006Z,2.91
2023-03-15T20:50:13.020Z,2.82
2023-03-15T20:52:42.553Z,2.91
2023-03-15T20:55:13.539Z,2.82
2023-03-15T20:57:42.957Z,2.80
2023-03-15T21:00:16.686Z,2.76
2023-03-15T21:02:45.820Z,2.68
2023-03-15T21:05:14.541Z,2.56
2023-03-15T21:07:43.169Z,2.46
2023-03-15T21:10:14.631Z,2.45
2023-03-15T21:12:43.856Z,2.36
2023-03-15T21:15:15.286Z,2.42
2023-03-15T21:17:43.714Z,2.37
2023-03-15T21:20:15.347Z,2.37
2023-03-15T21:22:43.982Z,2.46
2023-03-15T21:25:14.182Z,2.36
2023-03-15T21:27:42.580Z,2.34
2023-03-15T21:30:14.339Z,2.37
2023-03-15T21:32:43.595Z,2.35
2023-03-15T21:35:13.722Z,2.33
2023-03-15T21:37:42.096Z,2.46
2023-03-15T21:40:13.908Z,2.38
2023-03-15T21:42:43.492Z,2.44
2023-03-15T21:45:12.876Z,2.40
2023-03-15T21:47:41.750Z,2.33
2023-03-15T21:50:12.592Z,2.32
2023-03-15T21:52:41.289Z,2.29
2023-03-15T21:55:10.336Z,2.31
2023-03-15T21:57:40.062Z,2.26
2023-03-15T22:00:11.870Z,2.32
2023-03-15T22:02:40.851Z,2.24
2023-03-15T22:05:10.918Z,2.21
2023-03-15T22:07:39.308Z,2.14
2023-03-15T22:10:09.590Z,2.14
2023-03-15T22:12:38.336Z,2.10
2023-03-15T22:15:09.356Z,2.15
2023-03-15T22:17:37.729Z,2.10
2023-03-15T22:20:09.896Z,2.08
2023-03-15T22:22:38.270Z,2.13
2023-03-15T22:25:07.490Z,2.14
2023-03-15T22:27:35.844Z,2.10
2023-03-15T22:30:04.730Z,2.14
2023-03-15T22:32:34.479Z,2.19
2023-03-15T22:35:03.960Z,2.29
2023-03-15T22:37:33.879Z,2.28
2023-03-15T22:40:02.173Z,2.40
2023-03-15T22:42:30.543Z,2.37
2023-03-15T22:44:58.854Z,2.38
2023-03-15T22:47:27.467Z,2.45
2023-03-15T22:49:59.455Z,2.44
2023-03-15T22:52:28.109Z,2.42
2023-03-15T22:54:56.470Z,2.39
2023-03-15T22:57:24.908Z,2.30
2023-03-15T22:59:53.395Z,2.30
2023-03-15T23:02:21.722Z,2.27
2023-03-15T23:04:50.105Z,2.23
2023-03-15T23:07:20.337Z,2.21
2023-03-15T23:09:48.724Z,2.38
2023-03-15T23:12:19.910Z,2.36
2023-03-15T23:14:52.657Z,2.44
2023-03-15T23:17:21.371Z,2.48
2023-03-15T23:19:49.943Z,2.54
2023-03-15T23:22:19.682Z,2.56
2023-03-15T23:24:48.080Z,2.61
2023-03-15T23:27:17.276Z,2.66
2023-03-15T23:29:54.077Z,2.68
2023-03-15T23:32:24.738Z,2.59
2023-03-15T23:34:53.472Z,2.55
2023-03-15T23:37:23.420Z,2.53
2023-03-15T23:39:53.269Z,2.64
2023-03-15T23:42:25.514Z,2.54
2023-03-15T23:44:54.930Z,2.57
2023-03-15T23:47:24.418Z,2.59
2023-03-15T23:49:53.065Z,2.54
2023-03-15T23:52:25.473Z,2.49
2023-03-15T23:54:54.156Z,2.44
2023-03-15T23:57:22.608Z,2.42
2023-03-15T23:59:51.250Z,2.35
